sensor_id;sensor_type;location;lat;lon;timestamp;P1;durP1;ratioP1;P2;durP2;ratioP2
39022;SDS011;25908;51.984;5.928;2023-08-06T00:02:13;9.52;;;5.82;;
39022;SDS011;25908;51.984;5.928;2023-08-06T00:04:38;8.75;;;6.18;;
39022;SDS011;25908;51.984;5.928;2023-08-06T00:07:04;7.65;;;5.72;;
39022;SDS011;25908;51.984;5.928;2023-08-06T00:09:30;7.38;;;5.68;;
39022;SDS011;25908;51.984;5.928;2023-08-06T00:11:55;6.45;;;5.25;;
39022;SDS011;25908;51.984;5.928;2023-08-06T00:14:21;7.13;;;5.43;;
39022;SDS011;25908;51.984;5.928;2023-08-06T00:16:46;8.18;;;5.80;;
39022;SDS011;25908;51.984;5.928;2023-08-06T00:19:12;7.25;;;5.82;;
39022;SDS011;25908;51.984;5.928;2023-08-06T00:21:38;7.72;;;5.88;;
39022;SDS011;25908;51.984;5.928;2023-08-06T00:24:03;8.63;;;5.43;;
39022;SDS011;25908;51.984;5.928;2023-08-06T00:26:29;8.18;;;5.25;;
39022;SDS011;25908;51.984;5.928;2023-08-06T00:28:55;7.97;;;5.75;;
39022;SDS011;25908;51.984;5.928;2023-08-06T00:31:20;6.55;;;5.22;;
39022;SDS011;25908;51.984;5.928;2023-08-06T00:33:46;6.55;;;4.55;;
39022;SDS011;25908;51.984;5.928;2023-08-06T00:36:11;7.75;;;4.93;;
39022;SDS011;25908;51.984;5.928;2023-08-06T00:38:37;8.43;;;5.60;;
39022;SDS011;25908;51.984;5.928;2023-08-06T00:41:03;7.72;;;4.70;;
39022;SDS011;25908;51.984;5.928;2023-08-06T00:43:29;7.22;;;5.50;;
39022;SDS011;25908;51.984;5.928;2023-08-06T00:45:55;7.80;;;5.57;;
39022;SDS011;25908;51.984;5.928;2023-08-06T00:48:21;7.95;;;5.82;;
39022;SDS011;25908;51.984;5.928;2023-08-06T00:50:46;6.22;;;4.97;;
39022;SDS011;25908;51.984;5.928;2023-08-06T00:53:12;8.48;;;5.63;;
39022;SDS011;25908;51.984;5.928;2023-08-06T00:55:38;7.47;;;5.65;;
39022;SDS011;25908;51.984;5.928;2023-08-06T00:58:04;7.13;;;5.80;;
39022;SDS011;25908;51.984;5.928;2023-08-06T01:00:30;9.05;;;6.68;;
39022;SDS011;25908;51.984;5.928;2023-08-06T01:02:56;10.05;;;7.13;;
39022;SDS011;25908;51.984;5.928;2023-08-06T01:05:22;7.65;;;6.00;;
39022;SDS011;25908;51.984;5.928;2023-08-06T01:10:39;8.73;;;6.22;;
39022;SDS011;25908;51.984;5.928;2023-08-06T01:13:38;9.00;;;6.10;;
39022;SDS011;25908;51.984;5.928;2023-08-06T01:16:11;8.13;;;6.18;;
39022;SDS011;25908;51.984;5.928;2023-08-06T01:18:39;8.60;;;5.63;;
39022;SDS011;25908;51.984;5.928;2023-08-06T01:21:06;7.43;;;5.70;;
39022;SDS011;25908;51.984;5.928;2023-08-06T01:23:32;7.63;;;5.32;;
39022;SDS011;25908;51.984;5.928;2023-08-06T01:31:26;5.55;;;4.10;;
39022;SDS011;25908;51.984;5.928;2023-08-06T01:33:55;6.45;;;4.85;;
39022;SDS011;25908;51.984;5.928;2023-08-06T01:36:23;7.15;;;5.03;;
39022;SDS011;25908;51.984;5.928;2023-08-06T01:38:51;6.53;;;5.00;;
39022;SDS011;25908;51.984;5.928;2023-08-06T01:41:17;7.60;;;5.18;;
39022;SDS011;25908;51.984;5.928;2023-08-06T01:43:43;7.20;;;5.55;;
39022;SDS011;25908;51.984;5.928;2023-08-06T01:46:08;7.90;;;5.80;;
39022;SDS011;25908;51.984;5.928;2023-08-06T01:48:34;7.95;;;5.78;;
39022;SDS011;25908;51.984;5.928;2023-08-06T01:51:00;8.32;;;5.78;;
39022;SDS011;25908;51.984;5.928;2023-08-06T01:53:25;10.57;;;5.90;;
39022;SDS011;25908;51.984;5.928;2023-08-06T01:55:51;8.05;;;6.18;;
39022;SDS011;25908;51.984;5.928;2023-08-06T01:58:17;8.13;;;6.53;;
39022;SDS011;25908;51.984;5.928;2023-08-06T02:00:42;9.40;;;7.15;;
39022;SDS011;25908;51.984;5.928;2023-08-06T02:03:08;9.40;;;7.22;;
39022;SDS011;25908;51.984;5.928;2023-08-06T02:05:33;9.20;;;7.18;;
39022;SDS011;25908;51.984;5.928;2023-08-06T02:07:59;8.60;;;7.38;;
39022;SDS011;25908;51.984;5.928;2023-08-06T02:10:24;10.20;;;8.02;;
39022;SDS011;25908;51.984;5.928;2023-08-06T02:12:50;10.73;;;7.82;;
39022;SDS011;25908;51.984;5.928;2023-08-06T02:15:16;10.25;;;8.30;;
39022;SDS011;25908;51.984;5.928;2023-08-06T02:17:41;9.13;;;7.63;;
39022;SDS011;25908;51.984;5.928;2023-08-06T02:20:07;10.35;;;8.30;;
39022;SDS011;25908;51.984;5.928;2023-08-06T02:22:33;10.05;;;8.57;;
39022;SDS011;25908;51.984;5.928;2023-08-06T02:24:58;9.93;;;8.43;;
39022;SDS011;25908;51.984;5.928;2023-08-06T02:27:24;12.95;;;9.07;;
39022;SDS011;25908;51.984;5.928;2023-08-06T02:29:50;12.65;;;9.10;;
39022;SDS011;25908;51.984;5.928;2023-08-06T02:32:15;9.73;;;8.68;;
39022;SDS011;25908;51.984;5.928;2023-08-06T02:34:41;11.55;;;8.70;;
39022;SDS011;25908;51.984;5.928;2023-08-06T02:37:07;10.05;;;8.13;;
39022;SDS011;25908;51.984;5.928;2023-08-06T02:39:32;11.60;;;8.68;;
39022;SDS011;25908;51.984;5.928;2023-08-06T02:41:59;10.50;;;7.85;;
39022;SDS011;25908;51.984;5.928;2023-08-06T02:44:27;8.93;;;7.47;;
39022;SDS011;25908;51.984;5.928;2023-08-06T02:46:53;8.77;;;7.25;;
39022;SDS011;25908;51.984;5.928;2023-08-06T02:49:19;8.38;;;7.32;;
39022;SDS011;25908;51.984;5.928;2023-08-06T02:51:45;9.93;;;7.57;;
39022;SDS011;25908;51.984;5.928;2023-08-06T02:54:10;11.45;;;7.20;;
39022;SDS011;25908;51.984;5.928;2023-08-06T02:56:36;8.13;;;6.80;;
39022;SDS011;25908;51.984;5.928;2023-08-06T02:59:01;8.18;;;6.50;;
39022;SDS011;25908;51.984;5.928;2023-08-06T03:01:27;8.57;;;6.60;;
39022;SDS011;25908;51.984;5.928;2023-08-06T03:03:53;7.90;;;6.38;;
39022;SDS011;25908;51.984;5.928;2023-08-06T03:06:19;8.00;;;6.43;;
39022;SDS011;25908;51.984;5.928;2023-08-06T03:08:44;9.68;;;6.38;;
39022;SDS011;25908;51.984;5.928;2023-08-06T03:11:10;8.18;;;6.00;;
39022;SDS011;25908;51.984;5.928;2023-08-06T03:13:36;6.85;;;5.55;;
39022;SDS011;25908;51.984;5.928;2023-08-06T03:16:01;7.90;;;5.50;;
39022;SDS011;25908;51.984;5.928;2023-08-06T03:18:27;6.93;;;5.35;;
39022;SDS011;25908;51.984;5.928;2023-08-06T03:20:53;6.65;;;5.00;;
39022;SDS011;25908;51.984;5.928;2023-08-06T03:23:19;7.07;;;4.93;;
39022;SDS011;25908;51.984;5.928;2023-08-06T03:25:44;7.20;;;5.22;;
39022;SDS011;25908;51.984;5.928;2023-08-06T03:28:10;6.65;;;5.35;;
39022;SDS011;25908;51.984;5.928;2023-08-06T03:30:35;6.25;;;5.03;;
39022;SDS011;25908;51.984;5.928;2023-08-06T03:33:01;7.00;;;5.22;;
39022;SDS011;25908;51.984;5.928;2023-08-06T03:35:27;6.30;;;4.95;;
39022;SDS011;25908;51.984;5.928;2023-08-06T03:37:52;7.32;;;5.07;;
39022;SDS011;25908;51.984;5.928;2023-08-06T03:40:18;6.75;;;5.03;;
39022;SDS011;25908;51.984;5.928;2023-08-06T03:42:44;6.78;;;5.20;;
39022;SDS011;25908;51.984;5.928;2023-08-06T03:45:09;7.38;;;5.63;;
39022;SDS011;25908;51.984;5.928;2023-08-06T03:47:35;9.05;;;5.55;;
39022;SDS011;25908;51.984;5.928;2023-08-06T03:50:00;7.53;;;5.93;;
39022;SDS011;25908;51.984;5.928;2023-08-06T03:52:26;8.27;;;5.70;;
39022;SDS011;25908;51.984;5.928;2023-08-06T03:54:52;7.60;;;5.75;;
39022;SDS011;25908;51.984;5.928;2023-08-06T03:57:17;8.48;;;5.50;;
39022;SDS011;25908;51.984;5.928;2023-08-06T03:59:43;7.22;;;5.70;;
39022;SDS011;25908;51.984;5.928;2023-08-06T04:02:09;7.72;;;5.82;;
39022;SDS011;25908;51.984;5.928;2023-08-06T04:04:34;8.80;;;6.22;;
39022;SDS011;25908;51.984;5.928;2023-08-06T04:07:00;7.65;;;5.60;;
39022;SDS011;25908;51.984;5.928;2023-08-06T04:09:27;8.38;;;6.20;;
39022;SDS011;25908;51.984;5.928;2023-08-06T04:11:53;7.70;;;6.60;;
39022;SDS011;25908;51.984;5.928;2023-08-06T04:14:19;8.10;;;6.07;;
39022;SDS011;25908;51.984;5.928;2023-08-06T04:16:44;8.27;;;6.45;;
39022;SDS011;25908;51.984;5.928;2023-08-06T04:19:10;8.50;;;6.35;;
39022;SDS011;25908;51.984;5.928;2023-08-06T04:21:36;9.02;;;7.22;;
39022;SDS011;25908;51.984;5.928;2023-08-06T04:24:01;8.43;;;6.95;;
39022;SDS011;25908;51.984;5.928;2023-08-06T04:26:27;11.02;;;6.30;;
39022;SDS011;25908;51.984;5.928;2023-08-06T04:28:53;8.82;;;6.60;;
39022;SDS011;25908;51.984;5.928;2023-08-06T04:31:18;9.07;;;7.00;;
39022;SDS011;25908;51.984;5.928;2023-08-06T04:33:44;8.77;;;6.55;;
39022;SDS011;25908;51.984;5.928;2023-08-06T04:36:09;8.43;;;6.40;;
39022;SDS011;25908;51.984;5.928;2023-08-06T04:38:36;9.02;;;6.88;;
39022;SDS011;25908;51.984;5.928;2023-08-06T04:41:03;9.57;;;7.32;;
39022;SDS011;25908;51.984;5.928;2023-08-06T04:43:29;8.77;;;6.88;;
39022;SDS011;25908;51.984;5.928;2023-08-06T04:45:54;10.32;;;7.50;;
39022;SDS011;25908;51.984;5.928;2023-08-06T04:48:21;8.98;;;6.90;;
39022;SDS011;25908;51.984;5.928;2023-08-06T04:50:48;8.50;;;6.90;;
39022;SDS011;25908;51.984;5.928;2023-08-06T04:53:14;9.63;;;7.47;;
39022;SDS011;25908;51.984;5.928;2023-08-06T04:55:40;8.23;;;7.10;;
39022;SDS011;25908;51.984;5.928;2023-08-06T04:58:06;9.68;;;7.45;;
39022;SDS011;25908;51.984;5.928;2023-08-06T05:00:33;9.18;;;7.78;;
39022;SDS011;25908;51.984;5.928;2023-08-06T05:02:59;11.32;;;7.95;;
39022;SDS011;25908;51.984;5.928;2023-08-06T05:05:26;7.70;;;6.78;;
39022;SDS011;25908;51.984;5.928;2023-08-06T05:07:53;9.48;;;7.78;;
39022;SDS011;25908;51.984;5.928;2023-08-06T05:10:20;8.73;;;7.35;;
39022;SDS011;25908;51.984;5.928;2023-08-06T05:12:46;9.25;;;7.32;;
39022;SDS011;25908;51.984;5.928;2023-08-06T05:15:11;8.98;;;7.25;;
39022;SDS011;25908;51.984;5.928;2023-08-06T05:17:37;10.35;;;6.68;;
39022;SDS011;25908;51.984;5.928;2023-08-06T05:20:03;9.45;;;7.35;;
39022;SDS011;25908;51.984;5.928;2023-08-06T05:22:29;9.57;;;7.60;;
39022;SDS011;25908;51.984;5.928;2023-08-06T05:24:54;8.15;;;6.72;;
39022;SDS011;25908;51.984;5.928;2023-08-06T05:27:20;9.85;;;7.70;;
39022;SDS011;25908;51.984;5.928;2023-08-06T05:29:45;9.60;;;7.03;;
39022;SDS011;25908;51.984;5.928;2023-08-06T05:32:12;10.20;;;8.20;;
39022;SDS011;25908;51.984;5.928;2023-08-06T05:34:38;10.63;;;8.68;;
39022;SDS011;25908;51.984;5.928;2023-08-06T05:37:04;9.88;;;8.25;;
39022;SDS011;25908;51.984;5.928;2023-08-06T05:39:30;10.85;;;8.30;;
39022;SDS011;25908;51.984;5.928;2023-08-06T05:41:55;12.48;;;9.52;;
39022;SDS011;25908;51.984;5.928;2023-08-06T05:44:21;13.30;;;9.07;;
39022;SDS011;25908;51.984;5.928;2023-08-06T05:46:48;10.88;;;9.35;;
39022;SDS011;25908;51.984;5.928;2023-08-06T05:49:14;12.65;;;9.95;;
39022;SDS011;25908;51.984;5.928;2023-08-06T05:51:41;11.50;;;9.82;;
39022;SDS011;25908;51.984;5.928;2023-08-06T05:54:07;12.13;;;10.10;;
39022;SDS011;25908;51.984;5.928;2023-08-06T05:56:32;13.75;;;10.93;;
39022;SDS011;25908;51.984;5.928;2023-08-06T05:58:58;13.05;;;10.18;;
39022;SDS011;25908;51.984;5.928;2023-08-06T06:01:23;13.68;;;11.13;;
39022;SDS011;25908;51.984;5.928;2023-08-06T06:03:49;12.68;;;10.88;;
39022;SDS011;25908;51.984;5.928;2023-08-06T06:06:15;13.43;;;11.40;;
39022;SDS011;25908;51.984;5.928;2023-08-06T06:08:41;12.77;;;11.32;;
39022;SDS011;25908;51.984;5.928;2023-08-06T06:11:07;14.13;;;11.70;;
39022;SDS011;25908;51.984;5.928;2023-08-06T06:13:33;13.77;;;11.45;;
39022;SDS011;25908;51.984;5.928;2023-08-06T06:15:58;15.55;;;12.68;;
39022;SDS011;25908;51.984;5.928;2023-08-06T06:18:24;16.73;;;12.15;;
39022;SDS011;25908;51.984;5.928;2023-08-06T06:20:49;14.55;;;12.18;;
39022;SDS011;25908;51.984;5.928;2023-08-06T06:23:15;13.55;;;11.30;;
39022;SDS011;25908;51.984;5.928;2023-08-06T06:25:47;13.27;;;11.20;;
39022;SDS011;25908;51.984;5.928;2023-08-06T06:28:13;13.90;;;11.45;;
39022;SDS011;25908;51.984;5.928;2023-08-06T06:30:40;12.07;;;10.77;;
39022;SDS011;25908;51.984;5.928;2023-08-06T06:33:06;13.50;;;11.05;;
39022;SDS011;25908;51.984;5.928;2023-08-06T06:35:32;14.25;;;10.85;;
39022;SDS011;25908;51.984;5.928;2023-08-06T06:37:58;13.85;;;10.90;;
39022;SDS011;25908;51.984;5.928;2023-08-06T06:40:24;12.73;;;10.55;;
39022;SDS011;25908;51.984;5.928;2023-08-06T06:42:50;13.43;;;9.65;;
39022;SDS011;25908;51.984;5.928;2023-08-06T06:45:16;11.70;;;10.27;;
39022;SDS011;25908;51.984;5.928;2023-08-06T06:47:41;11.73;;;10.05;;
39022;SDS011;25908;51.984;5.928;2023-08-06T06:50:07;13.48;;;10.93;;
39022;SDS011;25908;51.984;5.928;2023-08-06T06:52:33;11.52;;;10.27;;
39022;SDS011;25908;51.984;5.928;2023-08-06T06:54:59;12.68;;;10.38;;
39022;SDS011;25908;51.984;5.928;2023-08-06T06:57:24;12.07;;;10.75;;
39022;SDS011;25908;51.984;5.928;2023-08-06T06:59:51;10.40;;;9.30;;
39022;SDS011;25908;51.984;5.928;2023-08-06T07:02:16;12.00;;;9.75;;
39022;SDS011;25908;51.984;5.928;2023-08-06T07:04:42;11.80;;;9.73;;
39022;SDS011;25908;51.984;5.928;2023-08-06T07:07:07;13.48;;;10.07;;
39022;SDS011;25908;51.984;5.928;2023-08-06T07:09:33;11.38;;;8.93;;
39022;SDS011;25908;51.984;5.928;2023-08-06T07:11:59;10.85;;;9.38;;
39022;SDS011;25908;51.984;5.928;2023-08-06T07:14:25;11.75;;;8.30;;
39022;SDS011;25908;51.984;5.928;2023-08-06T07:16:51;11.73;;;9.15;;
39022;SDS011;25908;51.984;5.928;2023-08-06T07:19:16;11.75;;;9.15;;
39022;SDS011;25908;51.984;5.928;2023-08-06T07:21:42;10.13;;;8.32;;
39022;SDS011;25908;51.984;5.928;2023-08-06T07:24:08;10.85;;;9.07;;
39022;SDS011;25908;51.984;5.928;2023-08-06T07:26:33;11.23;;;8.90;;
39022;SDS011;25908;51.984;5.928;2023-08-06T07:28:59;12.13;;;9.65;;
39022;SDS011;25908;51.984;5.928;2023-08-06T07:31:24;11.05;;;9.63;;
39022;SDS011;25908;51.984;5.928;2023-08-06T07:33:50;12.25;;;9.18;;
39022;SDS011;25908;51.984;5.928;2023-08-06T07:36:16;9.75;;;8.75;;
39022;SDS011;25908;51.984;5.928;2023-08-06T07:38:42;9.50;;;8.45;;
39022;SDS011;25908;51.984;5.928;2023-08-06T07:41:08;9.60;;;8.05;;
39022;SDS011;25908;51.984;5.928;2023-08-06T07:43:34;10.73;;;7.80;;
39022;SDS011;25908;51.984;5.928;2023-08-06T07:46:00;8.70;;;7.60;;
39022;SDS011;25908;51.984;5.928;2023-08-06T07:48:27;9.50;;;7.82;;
39022;SDS011;25908;51.984;5.928;2023-08-06T07:50:56;8.40;;;7.50;;
39022;SDS011;25908;51.984;5.928;2023-08-06T07:53:22;9.38;;;7.82;;
39022;SDS011;25908;51.984;5.928;2023-08-06T07:55:51;9.45;;;8.45;;
39022;SDS011;25908;51.984;5.928;2023-08-06T07:58:18;10.98;;;8.55;;
39022;SDS011;25908;51.984;5.928;2023-08-06T08:00:44;9.30;;;7.88;;
39022;SDS011;25908;51.984;5.928;2023-08-06T08:03:14;9.00;;;7.85;;
39022;SDS011;25908;51.984;5.928;2023-08-06T08:05:41;9.52;;;8.52;;
39022;SDS011;25908;51.984;5.928;2023-08-06T08:08:07;9.90;;;8.40;;
39022;SDS011;25908;51.984;5.928;2023-08-06T08:10:33;8.82;;;7.93;;
39022;SDS011;25908;51.984;5.928;2023-08-06T08:13:02;9.52;;;8.52;;
39022;SDS011;25908;51.984;5.928;2023-08-06T08:15:29;8.85;;;7.95;;
39022;SDS011;25908;51.984;5.928;2023-08-06T08:17:55;9.32;;;8.43;;
39022;SDS011;25908;51.984;5.928;2023-08-06T08:20:21;9.02;;;8.05;;
39022;SDS011;25908;51.984;5.928;2023-08-06T08:22:47;9.40;;;8.18;;
39022;SDS011;25908;51.984;5.928;2023-08-06T08:25:13;9.38;;;8.38;;
39022;SDS011;25908;51.984;5.928;2023-08-06T08:27:39;9.85;;;8.10;;
39022;SDS011;25908;51.984;5.928;2023-08-06T08:30:04;9.40;;;8.50;;
39022;SDS011;25908;51.984;5.928;2023-08-06T08:32:30;10.45;;;9.05;;
39022;SDS011;25908;51.984;5.928;2023-08-06T08:34:56;10.48;;;8.25;;
39022;SDS011;25908;51.984;5.928;2023-08-06T08:37:23;9.45;;;8.25;;
39022;SDS011;25908;51.984;5.928;2023-08-06T08:39:49;11.05;;;8.93;;
39022;SDS011;25908;51.984;5.928;2023-08-06T08:42:15;8.65;;;7.65;;
39022;SDS011;25908;51.984;5.928;2023-08-06T08:44:41;11.00;;;8.65;;
39022;SDS011;25908;51.984;5.928;2023-08-06T08:47:08;10.15;;;8.43;;
39022;SDS011;25908;51.984;5.928;2023-08-06T08:49:35;8.75;;;7.35;;
39022;SDS011;25908;51.984;5.928;2023-08-06T08:52:02;9.80;;;7.63;;
39022;SDS011;25908;51.984;5.928;2023-08-06T08:54:30;9.80;;;7.30;;
39022;SDS011;25908;51.984;5.928;2023-08-06T08:56:57;8.00;;;7.03;;
39022;SDS011;25908;51.984;5.928;2023-08-06T08:59:23;8.88;;;7.70;;
39022;SDS011;25908;51.984;5.928;2023-08-06T09:01:48;8.70;;;7.78;;
39022;SDS011;25908;51.984;5.928;2023-08-06T09:04:18;13.95;;;8.35;;
39022;SDS011;25908;51.984;5.928;2023-08-06T09:06:45;7.65;;;6.85;;
39022;SDS011;25908;51.984;5.928;2023-08-06T09:09:12;8.88;;;6.97;;
39022;SDS011;25908;51.984;5.928;2023-08-06T09:11:44;7.38;;;6.07;;
39022;SDS011;25908;51.984;5.928;2023-08-06T09:14:14;8.65;;;6.90;;
39022;SDS011;25908;51.984;5.928;2023-08-06T09:16:40;9.85;;;6.22;;
39022;SDS011;25908;51.984;5.928;2023-08-06T09:19:12;8.45;;;6.88;;
39022;SDS011;25908;51.984;5.928;2023-08-06T09:21:40;8.27;;;6.70;;
39022;SDS011;25908;51.984;5.928;2023-08-06T09:24:07;7.53;;;6.20;;
39022;SDS011;25908;51.984;5.928;2023-08-06T09:26:38;8.10;;;6.00;;
39022;SDS011;25908;51.984;5.928;2023-08-06T09:29:05;7.30;;;5.75;;
39022;SDS011;25908;51.984;5.928;2023-08-06T09:31:33;7.85;;;6.07;;
39022;SDS011;25908;51.984;5.928;2023-08-06T09:34:11;7.05;;;5.75;;
39022;SDS011;25908;51.984;5.928;2023-08-06T09:39:14;7.93;;;5.38;;
39022;SDS011;25908;51.984;5.928;2023-08-06T09:41:41;6.20;;;5.20;;
39022;SDS011;25908;51.984;5.928;2023-08-06T09:44:17;6.30;;;5.45;;
39022;SDS011;25908;51.984;5.928;2023-08-06T09:47:02;6.25;;;5.22;;
39022;SDS011;25908;51.984;5.928;2023-08-06T09:51:57;6.03;;;5.10;;
39022;SDS011;25908;51.984;5.928;2023-08-06T09:54:24;5.65;;;5.05;;
39022;SDS011;25908;51.984;5.928;2023-08-06T09:56:52;6.18;;;5.03;;
39022;SDS011;25908;51.984;5.928;2023-08-06T09:59:18;6.53;;;5.00;;
39022;SDS011;25908;51.984;5.928;2023-08-06T10:01:44;6.97;;;5.57;;
39022;SDS011;25908;51.984;5.928;2023-08-06T10:04:11;6.10;;;5.43;;
39022;SDS011;25908;51.984;5.928;2023-08-06T10:06:41;6.37;;;5.30;;
39022;SDS011;25908;51.984;5.928;2023-08-06T10:09:07;7.32;;;5.80;;
39022;SDS011;25908;51.984;5.928;2023-08-06T10:11:34;8.32;;;5.40;;
39022;SDS011;25908;51.984;5.928;2023-08-06T10:16:34;6.85;;;5.55;;
39022;SDS011;25908;51.984;5.928;2023-08-06T10:19:01;6.30;;;5.47;;
39022;SDS011;25908;51.984;5.928;2023-08-06T10:21:30;7.07;;;6.38;;
39022;SDS011;25908;51.984;5.928;2023-08-06T10:23:57;8.48;;;6.72;;
39022;SDS011;25908;51.984;5.928;2023-08-06T10:26:29;10.15;;;8.05;;
39022;SDS011;25908;51.984;5.928;2023-08-06T10:28:54;9.20;;;8.20;;
39022;SDS011;25908;51.984;5.928;2023-08-06T10:32:07;9.90;;;8.60;;
39022;SDS011;25908;51.984;5.928;2023-08-06T10:34:27;9.38;;;8.38;;
39022;SDS011;25908;51.984;5.928;2023-08-06T10:37:23;11.05;;;9.38;;
39022;SDS011;25908;51.984;5.928;2023-08-06T10:40:09;7.32;;;6.00;;
39022;SDS011;25908;51.984;5.928;2023-08-06T10:42:35;5.97;;;4.88;;
39022;SDS011;25908;51.984;5.928;2023-08-06T10:47:41;2.85;;;2.20;;
39022;SDS011;25908;51.984;5.928;2023-08-06T10:50:07;2.83;;;1.90;;
39022;SDS011;25908;51.984;5.928;2023-08-06T10:52:35;4.30;;;1.42;;
39022;SDS011;25908;51.984;5.928;2023-08-06T10:55:01;1.15;;;0.95;;
39022;SDS011;25908;51.984;5.928;2023-08-06T10:57:27;1.17;;;0.90;;
39022;SDS011;25908;51.984;5.928;2023-08-06T10:59:52;1.58;;;0.70;;
39022;SDS011;25908;51.984;5.928;2023-08-06T11:02:18;2.42;;;0.75;;
39022;SDS011;25908;51.984;5.928;2023-08-06T11:04:43;1.02;;;0.65;;
39022;SDS011;25908;51.984;5.928;2023-08-06T11:07:09;1.42;;;0.80;;
39022;SDS011;25908;51.984;5.928;2023-08-06T11:09:35;3.88;;;0.70;;
39022;SDS011;25908;51.984;5.928;2023-08-06T11:12:00;0.88;;;0.70;;
39022;SDS011;25908;51.984;5.928;2023-08-06T11:14:26;1.48;;;0.77;;
39022;SDS011;25908;51.984;5.928;2023-08-06T11:16:52;1.52;;;0.90;;
39022;SDS011;25908;51.984;5.928;2023-08-06T11:19:17;0.95;;;0.70;;
39022;SDS011;25908;51.984;5.928;2023-08-06T11:21:43;2.97;;;1.00;;
39022;SDS011;25908;51.984;5.928;2023-08-06T11:24:11;1.00;;;0.60;;
39022;SDS011;25908;51.984;5.928;2023-08-06T11:26:37;1.75;;;0.90;;
39022;SDS011;25908;51.984;5.928;2023-08-06T11:29:05;1.27;;;0.68;;
39022;SDS011;25908;51.984;5.928;2023-08-06T11:31:30;1.27;;;0.70;;
39022;SDS011;25908;51.984;5.928;2023-08-06T11:33:56;1.55;;;0.85;;
39022;SDS011;25908;51.984;5.928;2023-08-06T11:36:31;2.78;;;1.25;;
39022;SDS011;25908;51.984;5.928;2023-08-06T11:39:00;1.63;;;1.10;;
39022;SDS011;25908;51.984;5.928;2023-08-06T11:41:28;2.73;;;1.40;;
39022;SDS011;25908;51.984;5.928;2023-08-06T11:43:54;2.03;;;1.42;;
39022;SDS011;25908;51.984;5.928;2023-08-06T11:46:20;2.67;;;1.40;;
39022;SDS011;25908;51.984;5.928;2023-08-06T11:48:54;3.92;;;1.80;;
39022;SDS011;25908;51.984;5.928;2023-08-06T11:51:24;2.28;;;1.27;;
39022;SDS011;25908;51.984;5.928;2023-08-06T11:53:55;2.63;;;1.50;;
39022;SDS011;25908;51.984;5.928;2023-08-06T11:56:21;4.38;;;1.60;;
39022;SDS011;25908;51.984;5.928;2023-08-06T11:58:47;2.58;;;1.40;;
39022;SDS011;25908;51.984;5.928;2023-08-06T12:01:13;2.42;;;1.20;;
39022;SDS011;25908;51.984;5.928;2023-08-06T12:03:39;2.63;;;1.20;;
39022;SDS011;25908;51.984;5.928;2023-08-06T12:06:05;2.05;;;1.20;;
39022;SDS011;25908;51.984;5.928;2023-08-06T12:08:32;2.55;;;1.40;;
39022;SDS011;25908;51.984;5.928;2023-08-06T12:10:58;2.88;;;1.35;;
39022;SDS011;25908;51.984;5.928;2023-08-06T12:13:24;2.20;;;1.42;;
39022;SDS011;25908;51.984;5.928;2023-08-06T12:15:49;2.20;;;1.40;;
39022;SDS011;25908;51.984;5.928;2023-08-06T12:18:18;2.55;;;1.60;;
39022;SDS011;25908;51.984;5.928;2023-08-06T12:20:43;2.60;;;1.55;;
39022;SDS011;25908;51.984;5.928;2023-08-06T12:23:09;3.03;;;1.70;;
39022;SDS011;25908;51.984;5.928;2023-08-06T12:25:35;3.33;;;1.90;;
39022;SDS011;25908;51.984;5.928;2023-08-06T12:28:00;3.10;;;1.85;;
39022;SDS011;25908;51.984;5.928;2023-08-06T12:30:26;3.22;;;1.75;;
39022;SDS011;25908;51.984;5.928;2023-08-06T12:32:51;3.25;;;1.85;;
39022;SDS011;25908;51.984;5.928;2023-08-06T12:35:17;3.95;;;1.90;;
39022;SDS011;25908;51.984;5.928;2023-08-06T12:37:43;3.70;;;2.28;;
39022;SDS011;25908;51.984;5.928;2023-08-06T12:40:10;3.35;;;1.92;;
39022;SDS011;25908;51.984;5.928;2023-08-06T12:42:36;6.35;;;2.35;;
39022;SDS011;25908;51.984;5.928;2023-08-06T12:45:01;3.65;;;1.92;;
39022;SDS011;25908;51.984;5.928;2023-08-06T12:47:27;3.30;;;1.70;;
39022;SDS011;25908;51.984;5.928;2023-08-06T12:49:53;2.97;;;1.67;;
39022;SDS011;25908;51.984;5.928;2023-08-06T12:52:18;4.40;;;2.40;;
39022;SDS011;25908;51.984;5.928;2023-08-06T12:54:44;4.97;;;2.53;;
39022;SDS011;25908;51.984;5.928;2023-08-06T12:57:11;3.97;;;2.40;;
39022;SDS011;25908;51.984;5.928;2023-08-06T12:59:36;3.83;;;2.03;;
39022;SDS011;25908;51.984;5.928;2023-08-06T13:02:02;3.33;;;2.20;;
39022;SDS011;25908;51.984;5.928;2023-08-06T13:04:28;4.38;;;2.35;;
39022;SDS011;25908;51.984;5.928;2023-08-06T13:06:54;3.50;;;1.95;;
39022;SDS011;25908;51.984;5.928;2023-08-06T13:09:19;4.22;;;2.50;;
39022;SDS011;25908;51.984;5.928;2023-08-06T13:11:45;6.15;;;2.47;;
39022;SDS011;25908;51.984;5.928;2023-08-06T13:14:14;4.47;;;2.40;;
39022;SDS011;25908;51.984;5.928;2023-08-06T13:16:41;5.32;;;2.35;;
39022;SDS011;25908;51.984;5.928;2023-08-06T13:19:08;4.28;;;2.20;;
39022;SDS011;25908;51.984;5.928;2023-08-06T13:21:35;3.55;;;1.83;;
39022;SDS011;25908;51.984;5.928;2023-08-06T13:24:24;4.80;;;2.00;;
39022;SDS011;25908;51.984;5.928;2023-08-06T13:26:49;3.50;;;1.92;;
39022;SDS011;25908;51.984;5.928;2023-08-06T13:29:15;5.88;;;2.10;;
39022;SDS011;25908;51.984;5.928;2023-08-06T13:31:40;3.15;;;2.03;;
39022;SDS011;25908;51.984;5.928;2023-08-06T13:34:06;3.47;;;1.88;;
39022;SDS011;25908;51.984;5.928;2023-08-06T13:36:31;5.15;;;2.10;;
39022;SDS011;25908;51.984;5.928;2023-08-06T13:38:57;4.78;;;2.22;;
39022;SDS011;25908;51.984;5.928;2023-08-06T13:41:23;3.28;;;1.80;;
39022;SDS011;25908;51.984;5.928;2023-08-06T13:43:48;3.78;;;1.90;;
39022;SDS011;25908;51.984;5.928;2023-08-06T13:46:14;3.42;;;1.90;;
39022;SDS011;25908;51.984;5.928;2023-08-06T13:48:44;3.75;;;1.63;;
39022;SDS011;25908;51.984;5.928;2023-08-06T13:51:11;4.03;;;2.15;;
39022;SDS011;25908;51.984;5.928;2023-08-06T13:53:38;4.18;;;1.98;;
39022;SDS011;25908;51.984;5.928;2023-08-06T13:56:04;5.13;;;2.22;;
39022;SDS011;25908;51.984;5.928;2023-08-06T13:58:31;3.85;;;2.30;;
39022;SDS011;25908;51.984;5.928;2023-08-06T14:00:57;5.57;;;2.53;;
39022;SDS011;25908;51.984;5.928;2023-08-06T14:03:23;4.60;;;1.98;;
39022;SDS011;25908;51.984;5.928;2023-08-06T14:05:48;4.28;;;1.98;;
39022;SDS011;25908;51.984;5.928;2023-08-06T14:08:15;2.97;;;1.70;;
39022;SDS011;25908;51.984;5.928;2023-08-06T14:10:43;3.60;;;1.85;;
39022;SDS011;25908;51.984;5.928;2023-08-06T14:13:09;3.47;;;1.83;;
39022;SDS011;25908;51.984;5.928;2023-08-06T14:15:34;3.08;;;1.88;;
39022;SDS011;25908;51.984;5.928;2023-08-06T14:18:00;2.45;;;1.67;;
39022;SDS011;25908;51.984;5.928;2023-08-06T14:20:26;2.92;;;1.83;;
39022;SDS011;25908;51.984;5.928;2023-08-06T14:22:52;2.90;;;1.75;;
39022;SDS011;25908;51.984;5.928;2023-08-06T14:25:18;6.38;;;2.00;;
39022;SDS011;25908;51.984;5.928;2023-08-06T14:27:43;3.35;;;2.00;;
39022;SDS011;25908;51.984;5.928;2023-08-06T14:30:09;4.05;;;2.03;;
39022;SDS011;25908;51.984;5.928;2023-08-06T14:32:35;5.10;;;2.25;;
39022;SDS011;25908;51.984;5.928;2023-08-06T14:35:00;3.47;;;2.20;;
39022;SDS011;25908;51.984;5.928;2023-08-06T14:37:27;5.90;;;2.60;;
39022;SDS011;25908;51.984;5.928;2023-08-06T14:39:52;3.17;;;1.92;;
39022;SDS011;25908;51.984;5.928;2023-08-06T14:42:18;3.13;;;2.08;;
39022;SDS011;25908;51.984;5.928;2023-08-06T14:44:44;4.47;;;2.40;;
39022;SDS011;25908;51.984;5.928;2023-08-06T14:47:10;2.97;;;1.80;;
39022;SDS011;25908;51.984;5.928;2023-08-06T14:49:35;3.83;;;2.28;;
39022;SDS011;25908;51.984;5.928;2023-08-06T14:52:02;3.13;;;2.10;;
39022;SDS011;25908;51.984;5.928;2023-08-06T14:54:28;4.38;;;2.53;;
39022;SDS011;25908;51.984;5.928;2023-08-06T14:56:54;6.88;;;3.20;;
39022;SDS011;25908;51.984;5.928;2023-08-06T14:59:19;5.00;;;2.50;;